createdAt,value
2023-02-25T00:00:31.579Z,15.10
2023-02-25T00:02:59.104Z,15.10
2023-02-25T00:05:26.677Z,15.18
2023-02-25T00:07:54.292Z,12.25
2023-02-25T00:10:21.480Z,9.23
2023-02-25T00:12:48.052Z,9.95
2023-02-25T00:15:14.546Z,9.85
2023-02-25T00:17:41.071Z,6.00
2023-02-25T00:20:09.263Z,6.95
2023-02-25T00:25:03.435Z,7.78
2023-02-25T00:27:29.928Z,5.43
2023-02-25T00:29:56.521Z,7.55
2023-02-25T00:32:24.454Z,8.48
2023-02-25T00:34:51.101Z,7.22
2023-02-25T00:37:17.950Z,9.73
2023-02-25T00:39:45.241Z,9.00
2023-02-25T00:42:17.604Z,10.43
2023-02-25T00:44:46.056Z,7.35
2023-02-25T00:47:13.124Z,4.72
2023-02-25T00:49:39.786Z,7.80
2023-02-25T00:52:08.153Z,6.00
2023-02-25T00:54:35.076Z,5.15
2023-02-25T00:57:03.129Z,7.90
2023-02-25T00:59:29.812Z,5.65
2023-02-25T01:01:56.489Z,3.80
2023-02-25T01:04:23.748Z,4.72
2023-02-25T01:06:50.817Z,3.88
2023-02-25T01:09:17.595Z,6.97
2023-02-25T01:11:46.865Z,3.88
2023-02-25T01:14:22.959Z,5.18
2023-02-25T01:16:51.273Z,4.80
2023-02-25T01:19:22.402Z,4.55
2023-02-25T01:21:51.425Z,3.30
2023-02-25T01:24:21.312Z,4.05
2023-02-25T01:26:49.889Z,2.40
2023-02-25T01:29:20.763Z,3.60
2023-02-25T01:31:48.607Z,4.72
2023-02-25T01:34:17.577Z,3.90
2023-02-25T01:36:45.220Z,5.80
2023-02-25T01:39:13.524Z,5.20
2023-02-25T01:41:40.457Z,4.25
2023-02-25T01:46:42.497Z,3.30
2023-02-25T01:49:18.035Z,3.33
2023-02-25T01:51:47.451Z,3.88
2023-02-25T01:54:15.354Z,3.20
2023-02-25T01:56:46.593Z,2.03
2023-02-25T01:59:13.264Z,1.70
2023-02-25T02:01:40.457Z,3.00
2023-02-25T02:04:10.291Z,1.63
2023-02-25T02:06:42.653Z,2.83
2023-02-25T02:09:13.008Z,2.40
2023-02-25T02:11:41.352Z,3.20
2023-02-25T02:14:11.380Z,3.55
2023-02-25T02:16:59.250Z,3.33
2023-02-25T02:22:12.819Z,4.15
2023-02-25T02:24:51.438Z,3.67
2023-02-25T02:27:44.964Z,5.05
2023-02-25T02:30:38.749Z,5.15
2023-02-25T02:33:36.778Z,5.07
2023-02-25T02:36:35.061Z,5.07
2023-02-25T02:39:11.003Z,5.18
2023-02-25T02:41:46.954Z,5.10
2023-02-25T02:44:22.578Z,3.05
2023-02-25T02:46:55.023Z,2.97
2023-02-25T02:49:26.561Z,3.13
2023-02-25T02:51:56.438Z,3.35
2023-02-25T02:54:26.910Z,2.90
2023-02-25T02:56:56.015Z,3.97
2023-02-25T02:59:30.692Z,1.90
2023-02-25T03:02:12.316Z,3.55
2023-02-25T03:04:43.565Z,1.80
2023-02-25T03:07:13.172Z,2.45
2023-02-25T03:10:01.908Z,2.05
2023-02-25T03:12:31.800Z,2.63
2023-02-25T03:14:58.567Z,7.75
2023-02-25T03:17:39.714Z,1.33
2023-02-25T03:20:18.665Z,1.98
2023-02-25T03:22:49.319Z,1.90
2023-02-25T03:25:21.058Z,3.15
2023-02-25T03:27:55.247Z,2.67
2023-02-25T03:30:35.476Z,4.22
2023-02-25T03:33:13.653Z,2.53
2023-02-25T03:35:41.989Z,2.03
2023-02-25T03:38:19.157Z,2.03
2023-02-25T03:40:49.803Z,2.23
2023-02-25T03:43:24.491Z,0.68
2023-02-25T03:45:51.710Z,1.52
2023-02-25T03:48:19.107Z,1.60
2023-02-25T03:50:56.402Z,1.33
2023-02-25T03:53:22.892Z,1.50
2023-02-25T03:55:53.683Z,1.38
2023-02-25T03:58:20.347Z,7.35
2023-02-25T04:00:52.274Z,1.42
2023-02-25T04:03:18.952Z,0.93
2023-02-25T04:05:45.505Z,1.17
2023-02-25T04:08:12.326Z,0.73
2023-02-25T04:10:38.914Z,3.15
2023-02-25T04:13:05.441Z,0.75
2023-02-25T04:15:32.189Z,0.82
2023-02-25T04:17:58.664Z,0.50
2023-02-25T04:20:25.416Z,1.38
2023-02-25T04:22:52.087Z,2.22
2023-02-25T04:25:18.629Z,0.63
2023-02-25T04:27:45.158Z,3.45
2023-02-25T04:30:13.960Z,1.67
2023-02-25T04:32:40.840Z,0.95
2023-02-25T04:35:08.273Z,1.02
2023-02-25T04:37:34.780Z,1.02
2023-02-25T04:40:01.321Z,0.80
2023-02-25T04:42:27.941Z,1.05
2023-02-25T04:44:54.543Z,1.02
2023-02-25T04:47:21.208Z,1.20
2023-02-25T04:49:47.774Z,1.23
2023-02-25T04:52:15.441Z,1.60
2023-02-25T04:54:42.033Z,0.65
2023-02-25T04:57:11.007Z,1.13
2023-02-25T04:59:37.757Z,2.45
2023-02-25T05:02:04.464Z,1.38
2023-02-25T05:04:31.159Z,2.25
2023-02-25T05:06:57.704Z,1.95
2023-02-25T05:09:24.341Z,1.95
2023-02-25T05:11:50.950Z,2.47
2023-02-25T05:14:18.099Z,2.50
2023-02-25T05:16:44.736Z,6.60
2023-02-25T05:19:19.300Z,4.05
2023-02-25T05:21:45.958Z,1.85
2023-02-25T05:24:12.467Z,2.22
2023-02-25T05:26:39.270Z,4.85
2023-02-25T05:29:06.443Z,2.85
2023-02-25T05:31:33.348Z,3.65
2023-02-25T05:33:59.977Z,5.10
2023-02-25T05:36:28.396Z,1.95
2023-02-25T05:38:57.287Z,3.92
2023-02-25T05:41:23.844Z,4.65
2023-02-25T05:43:50.430Z,3.88
2023-02-25T05:46:17.139Z,4.82
2023-02-25T05:48:44.648Z,4.95
2023-02-25T05:51:17.256Z,6.40
2023-02-25T05:53:44.477Z,6.63
2023-02-25T05:56:13.521Z,7.60
2023-02-25T05:58:40.484Z,10.90
2023-02-25T06:01:12.390Z,7.90
2023-02-25T06:03:40.187Z,9.10
2023-02-25T06:06:08.160Z,5.75
2023-02-25T06:08:35.180Z,5.97
2023-02-25T06:11:01.900Z,7.13
2023-02-25T06:13:28.758Z,10.27
2023-02-25T06:15:55.273Z,10.40
2023-02-25T06:18:22.069Z,7.00
2023-02-25T06:20:49.016Z,5.80
2023-02-25T06:23:15.868Z,9.60
2023-02-25T06:25:42.482Z,9.27
2023-02-25T06:28:09.670Z,8.63
2023-02-25T06:30:36.767Z,9.48
2023-02-25T06:33:03.350Z,7.57
2023-02-25T06:35:30.001Z,7.80
2023-02-25T06:37:58.664Z,9.63
2023-02-25T06:40:25.957Z,13.68
2023-02-25T06:42:52.488Z,9.77
2023-02-25T06:45:19.008Z,10.20
2023-02-25T06:47:45.660Z,10.63
2023-02-25T06:50:12.416Z,10.40
2023-02-25T06:52:38.991Z,10.18
2023-02-25T06:55:05.874Z,10.15
2023-02-25T06:57:33.444Z,10.13
2023-02-25T06:59:59.998Z,12.73
2023-02-25T07:02:26.518Z,9.15
2023-02-25T07:04:54.243Z,12.65
2023-02-25T07:07:21.158Z,11.75
2023-02-25T07:09:47.614Z,16.48
2023-02-25T07:12:14.361Z,13.93
2023-02-25T07:14:41.065Z,7.75
2023-02-25T07:17:07.632Z,15.25
2023-02-25T07:19:34.251Z,11.68
2023-02-25T07:22:00.820Z,10.68
2023-02-25T07:24:27.500Z,12.75
2023-02-25T07:26:54.094Z,9.75
2023-02-25T07:29:20.711Z,12.95
2023-02-25T07:31:47.470Z,14.25
2023-02-25T07:34:14.579Z,11.02
2023-02-25T07:36:41.333Z,11.07
2023-02-25T07:39:10.783Z,14.85
2023-02-25T07:41:38.189Z,9.52
2023-02-25T07:44:05.892Z,12.70
2023-02-25T07:46:32.658Z,13.10
2023-02-25T07:48:59.607Z,12.65
2023-02-25T07:51:26.863Z,9.32
2023-02-25T07:53:55.220Z,11.70
2023-02-25T07:56:23.897Z,12.18
2023-02-25T07:58:50.848Z,11.02
2023-02-25T08:01:26.354Z,7.05
2023-02-25T08:03:55.413Z,10.13
2023-02-25T08:06:22.118Z,14.13
2023-02-25T08:08:48.909Z,11.60
2023-02-25T08:11:15.637Z,12.00
2023-02-25T08:13:42.471Z,10.32
2023-02-25T08:16:11.306Z,12.65
2023-02-25T08:18:38.424Z,14.48
2023-02-25T08:21:05.563Z,14.48
2023-02-25T08:23:32.100Z,13.23
2023-02-25T08:25:59.914Z,11.25
2023-02-25T08:28:30.077Z,11.20
2023-02-25T08:30:59.588Z,13.38
2023-02-25T08:33:29.585Z,14.38
2023-02-25T08:36:05.464Z,12.13
2023-02-25T08:38:31.970Z,13.20
2023-02-25T08:41:00.572Z,16.92
2023-02-25T08:43:27.085Z,13.57
2023-02-25T08:45:54.760Z,14.80
2023-02-25T08:48:21.398Z,10.40
2023-02-25T08:50:47.994Z,15.02
2023-02-25T08:53:14.840Z,15.52
2023-02-25T08:55:41.643Z,12.10
2023-02-25T08:58:08.378Z,12.68
2023-02-25T09:00:35.222Z,13.23
2023-02-25T09:03:01.983Z,12.90
2023-02-25T09:05:28.636Z,9.57
2023-02-25T09:07:55.165Z,25.65
2023-02-25T09:10:21.720Z,12.52
2023-02-25T09:12:48.374Z,13.27
2023-02-25T09:15:14.898Z,8.40
2023-02-25T09:17:41.751Z,9.35
2023-02-25T09:20:09.306Z,9.20
2023-02-25T09:22:35.894Z,14.27
2023-02-25T09:25:02.407Z,8.30
2023-02-25T09:27:29.024Z,12.70
2023-02-25T09:29:55.555Z,6.65
2023-02-25T09:32:22.812Z,7.95
2023-02-25T09:34:49.755Z,14.40
2023-02-25T09:37:17.341Z,7.05
2023-02-25T09:39:43.826Z,9.38
2023-02-25T09:42:16.316Z,14.07
2023-02-25T09:44:49.327Z,9.20
2023-02-25T09:47:23.056Z,7.45
2023-02-25T09:50:05.108Z,5.88
2023-02-25T09:52:35.456Z,8.73
2023-02-25T09:55:30.910Z,11.35
2023-02-25T09:58:23.345Z,10.98
2023-02-25T10:00:59.262Z,11.40
2023-02-25T10:03:43.231Z,8.43
2023-02-25T10:06:20.881Z,11.93
2023-02-25T10:09:11.542Z,9.93
2023-02-25T10:11:46.847Z,5.28
2023-02-25T10:14:13.260Z,4.32
2023-02-25T10:16:57.925Z,12.80
2023-02-25T10:19:53.042Z,9.10
2023-02-25T10:22:25.662Z,7.60
2023-02-25T10:24:58.163Z,4.88
2023-02-25T10:27:33.014Z,5.75
2023-02-25T10:30:06.429Z,6.55
2023-02-25T10:32:36.572Z,6.45
2023-02-25T10:35:20.334Z,4.32
2023-02-25T10:37:46.837Z,6.68
2023-02-25T10:40:21.333Z,6.10
2023-02-25T10:42:51.886Z,6.05
2023-02-25T10:45:32.298Z,5.28
2023-02-25T10:48:07.249Z,5.03
2023-02-25T10:50:45.038Z,7.10
2023-02-25T10:53:17.891Z,6.30
2023-02-25T10:55:44.592Z,5.03
2023-02-25T10:58:44.097Z,7.80
2023-02-25T11:01:15.098Z,6.85
2023-02-25T11:03:55.633Z,8.40
2023-02-25T11:06:31.054Z,8.75
2023-02-25T11:09:00.271Z,4.78
2023-02-25T11:11:32.499Z,17.13
2023-02-25T11:14:06.632Z,3.97
2023-02-25T11:16:36.592Z,7.47
2023-02-25T11:19:13.752Z,9.98
2023-02-25T11:21:41.145Z,7.27
2023-02-25T11:24:30.226Z,3.92
2023-02-25T11:26:57.767Z,8.80
2023-02-25T11:29:36.594Z,7.03
2023-02-25T11:32:21.476Z,6.78
2023-02-25T11:35:00.036Z,6.88
2023-02-25T11:37:43.212Z,5.25
2023-02-25T11:40:26.405Z,11.27
2023-02-25T11:43:05.316Z,8.45
2023-02-25T11:45:34.605Z,8.98
2023-02-25T11:48:05.107Z,11.35
2023-02-25T11:50:44.164Z,5.63
2023-02-25T11:53:32.504Z,11.63
2023-02-25T11:56:03.469Z,12.55
2023-02-25T11:59:08.992Z,9.30
2023-02-25T12:01:57.256Z,4.22
2023-02-25T12:04:23.692Z,10.75
2023-02-25T12:07:13.439Z,6.30
2023-02-25T12:09:42.755Z,7.63
2023-02-25T12:12:18.196Z,11.40
2023-02-25T12:15:10.524Z,3.72
2023-02-25T12:21:33.067Z,7.00
2023-02-25T12:24:14.483Z,5.82
2023-02-25T12:26:59.676Z,8.23
2023-02-25T12:29:41.093Z,11.35
2023-02-25T12:32:13.649Z,5.20
2023-02-25T12:35:01.986Z,8.70
2023-02-25T12:38:04.693Z,5.60
2023-02-25T12:41:05.167Z,7.20
2023-02-25T12:43:41.810Z,3.63
2023-02-25T12:46:23.549Z,4.30
2023-02-25T12:49:10.668Z,7.10
2023-02-25T12:51:51.670Z,9.17
2023-02-25T12:54:45.880Z,4.15
2023-02-25T12:57:33.497Z,6.95
2023-02-25T13:00:41.261Z,7.28
2023-02-25T13:03:25.173Z,4.70
2023-02-25T13:06:14.851Z,4.40
2023-02-25T13:09:09.211Z,4.63
2023-02-25T13:12:12.818Z,8.57
2023-02-25T13:15:09.884Z,8.13
2023-02-25T13:17:49.965Z,4.13
2023-02-25T13:20:38.597Z,12.23
2023-02-25T13:23:33.104Z,4.35
2023-02-25T13:26:02.613Z,7.90
2023-02-25T13:29:16.020Z,7.53
2023-02-25T13:31:54.349Z,5.68
2023-02-25T13:35:02.868Z,6.93
2023-02-25T13:37:41.599Z,5.07
2023-02-25T13:40:31.748Z,3.42
2023-02-25T13:43:09.418Z,4.13
2023-02-25T13:46:14.563Z,6.63
2023-02-25T13:48:59.922Z,5.20
2023-02-25T13:52:04.994Z,3.30
2023-02-25T13:54:43.550Z,5.72
2023-02-25T13:57:44.267Z,9.30
2023-02-25T14:00:41.750Z,8.15
2023-02-25T14:03:35.993Z,6.20
2023-02-25T14:06:25.190Z,4.78
2023-02-25T14:09:09.735Z,5.50
2023-02-25T14:12:03.156Z,5.65
2023-02-25T14:15:31.138Z,5.35
2023-02-25T14:18:03.716Z,8.45
2023-02-25T14:20:55.931Z,6.63
2023-02-25T14:23:40.456Z,5.70
2023-02-25T14:26:25.657Z,4.75
2023-02-25T14:29:04.317Z,8.93
2023-02-25T14:31:49.600Z,7.55
2023-02-25T14:34:32.889Z,9.30
2023-02-25T14:37:23.929Z,9.05
2023-02-25T14:39:56.168Z,7.78
2023-02-25T14:42:34.945Z,3.75
2023-02-25T14:45:05.471Z,3.63
2023-02-25T14:47:39.572Z,3.95
2023-02-25T14:50:28.121Z,3.30
2023-02-25T14:53:02.090Z,4.57
2023-02-25T14:55:55.296Z,5.55
2023-02-25T14:59:14.957Z,4.00
2023-02-25T15:02:02.001Z,2.78
2023-02-25T15:04:59.755Z,4.23
2023-02-25T15:07:42.519Z,4.10
2023-02-25T15:10:27.062Z,2.85
2023-02-25T15:13:29.478Z,10.98
2023-02-25T15:16:19.975Z,6.47
2023-02-25T15:19:00.701Z,5.57
2023-02-25T15:21:40.577Z,8.40
2023-02-25T15:24:30.785Z,6.78
2023-02-25T15:26:57.599Z,6.97
2023-02-25T15:29:33.082Z,4.65
2023-02-25T15:32:21.760Z,3.22
2023-02-25T15:35:00.598Z,4.07
2023-02-25T15:37:28.629Z,2.67
2023-02-25T15:39:58.035Z,2.40
2023-02-25T15:42:47.714Z,9.02
2023-02-25T15:45:29.291Z,4.32
2023-02-25T15:48:07.523Z,7.40
2023-02-25T15:50:43.367Z,4.30
2023-02-25T15:53:20.671Z,9.10
2023-02-25T15:55:49.534Z,10.68
2023-02-25T15:58:25.004Z,7.20
2023-02-25T16:01:07.067Z,10.27
2023-02-25T16:03:33.533Z,8.02
2023-02-25T16:06:14.096Z,10.73
2023-02-25T16:09:01.451Z,6.75
2023-02-25T16:11:40.008Z,6.68
2023-02-25T16:14:15.646Z,7.70
2023-02-25T16:16:48.324Z,4.72
2023-02-25T16:19:18.999Z,4.47
2023-02-25T16:21:49.148Z,13.05
2023-02-25T16:24:16.188Z,6.97
2023-02-25T16:26:57.619Z,2.05
2023-02-25T16:29:59.588Z,2.53
2023-02-25T16:32:49.971Z,4.97
2023-02-25T16:35:35.105Z,6.00
2023-02-25T16:38:09.250Z,7.25
2023-02-25T16:40:42.160Z,6.88
2023-02-25T16:43:19.392Z,5.53
2023-02-25T16:46:04.553Z,3.38
2023-02-25T16:51:29.099Z,3.97
2023-02-25T16:54:04.015Z,4.97
2023-02-25T16:56:32.208Z,2.67
2023-02-25T17:01:29.893Z,2.30
2023-02-25T17:04:19.443Z,2.25
2023-02-25T17:07:07.031Z,1.00
2023-02-25T17:09:34.128Z,7.57
2023-02-25T17:12:03.046Z,2.83
2023-02-25T17:14:30.739Z,3.05
2023-02-25T17:16:57.604Z,5.47
2023-02-25T17:19:24.857Z,2.67
2023-02-25T17:21:55.631Z,5.77
2023-02-25T17:24:31.249Z,1.77
2023-02-25T17:26:58.032Z,3.97
2023-02-25T17:29:34.067Z,3.00
2023-02-25T17:32:00.866Z,5.32
2023-02-25T17:34:31.031Z,7.70
2023-02-25T17:37:00.648Z,5.90
2023-02-25T17:39:27.360Z,6.13
2023-02-25T17:41:53.866Z,6.30
2023-02-25T17:44:38.660Z,10.70
2023-02-25T17:47:09.401Z,7.03
2023-02-25T17:49:37.763Z,5.22
2023-02-25T17:52:17.602Z,5.13
2023-02-25T17:54:51.542Z,6.68
2023-02-25T17:57:22.085Z,3.03
2023-02-25T17:59:54.661Z,2.08
2023-02-25T18:02:41.160Z,3.10
2023-02-25T18:05:18.115Z,3.03
2023-02-25T18:08:08.493Z,1.02
2023-02-25T18:10:35.036Z,0.95
2023-02-25T18:13:04.276Z,1.80
2023-02-25T18:15:32.585Z,3.30
2023-02-25T18:18:07.419Z,0.70
2023-02-25T18:20:36.765Z,1.20
2023-02-25T18:23:05.551Z,1.05
2023-02-25T18:25:33.193Z,2.00
2023-02-25T18:28:00.341Z,1.02
2023-02-25T18:30:30.019Z,3.10
2023-02-25T18:32:56.856Z,0.30
2023-02-25T18:35:24.386Z,0.60
2023-02-25T18:37:53.325Z,1.00
2023-02-25T18:40:29.287Z,1.10
2023-02-25T18:42:56.538Z,0.90
2023-02-25T18:45:25.047Z,1.53
2023-02-25T18:47:52.797Z,3.05
2023-02-25T18:50:20.434Z,2.15
2023-02-25T18:52:47.250Z,0.68
2023-02-25T18:55:22.932Z,0.45
2023-02-25T18:57:49.480Z,1.45
2023-02-25T19:00:18.069Z,1.00
2023-02-25T19:02:59.796Z,0.63
2023-02-25T19:05:27.198Z,5.10
2023-02-25T19:07:54.048Z,5.10
2023-02-25T19:10:26.682Z,7.93
2023-02-25T19:13:01.596Z,2.45
2023-02-25T19:15:28.076Z,4.70
2023-02-25T19:17:54.715Z,2.05
2023-02-25T19:20:21.564Z,2.60
2023-02-25T19:22:50.452Z,7.65
2023-02-25T19:25:20.793Z,3.53
2023-02-25T19:27:47.844Z,1.42
2023-02-25T19:30:16.567Z,3.28
2023-02-25T19:32:43.382Z,2.25
2023-02-25T19:35:10.448Z,0.80
2023-02-25T19:37:38.773Z,0.65
2023-02-25T19:40:07.787Z,1.70
2023-02-25T19:42:34.276Z,2.05
2023-02-25T19:45:00.754Z,0.50
2023-02-25T19:47:27.263Z,0.85
2023-02-25T19:49:53.739Z,0.52
2023-02-25T19:52:20.336Z,1.15
2023-02-25T19:54:46.851Z,1.35
2023-02-25T19:57:13.358Z,1.23
2023-02-25T19:59:40.024Z,1.42
2023-02-25T20:02:06.552Z,1.75
2023-02-25T20:04:33.163Z,0.60
2023-02-25T20:06:59.653Z,1.05
2023-02-25T20:09:26.105Z,0.90
2023-02-25T20:11:52.609Z,1.00
2023-02-25T20:14:19.133Z,3.17
2023-02-25T20:16:45.919Z,2.70
2023-02-25T20:19:12.636Z,1.17
2023-02-25T20:21:39.151Z,3.53
2023-02-25T20:24:06.131Z,4.00
2023-02-25T20:26:32.994Z,1.63
2023-02-25T20:29:00.353Z,4.47
2023-02-25T20:31:27.890Z,1.95
2023-02-25T20:33:57.540Z,2.38
2023-02-25T20:36:29.336Z,2.47
2023-02-25T20:39:29.136Z,2.53
2023-02-25T20:41:55.970Z,2.72
2023-02-25T20:44:22.558Z,2.22
2023-02-25T20:46:49.304Z,3.67
2023-02-25T20:49:19.718Z,2.08
2023-02-25T20:51:47.389Z,2.97
2023-02-25T20:54:16.266Z,2.75
2023-02-25T20:56:43.398Z,3.80
2023-02-25T20:59:12.239Z,2.17
2023-02-25T21:01:39.552Z,2.80
2023-02-25T21:04:06.431Z,3.63
2023-02-25T21:06:33.709Z,3.35
2023-02-25T21:09:00.386Z,3.43
2023-02-25T21:11:27.086Z,2.70
2023-02-25T21:13:54.598Z,5.50
2023-02-25T21:16:23.381Z,3.85
2023-02-25T21:18:50.417Z,4.07
2023-02-25T21:21:18.886Z,2.53
2023-02-25T21:23:45.998Z,2.05
2023-02-25T21:26:13.839Z,2.13
2023-02-25T21:28:41.059Z,2.80
2023-02-25T21:31:10.905Z,2.60
2023-02-25T21:33:40.105Z,2.55
2023-02-25T21:36:08.817Z,1.60
2023-02-25T21:38:36.356Z,1.67
2023-02-25T21:41:11.624Z,2.65
2023-02-25T21:43:38.491Z,4.38
2023-02-25T21:46:07.693Z,3.60
2023-02-25T21:48:34.472Z,4.53
2023-02-25T21:51:01.135Z,2.00
2023-02-25T21:53:28.062Z,2.03
2023-02-25T21:55:55.412Z,0.75
2023-02-25T21:58:22.481Z,2.00
2023-02-25T22:00:49.613Z,1.10
2023-02-25T22:03:16.814Z,1.13
2023-02-25T22:05:44.998Z,1.80
2023-02-25T22:10:37.909Z,2.67
2023-02-25T22:13:04.452Z,1.95
2023-02-25T22:15:31.016Z,2.35
2023-02-25T22:17:57.551Z,2.83
2023-02-25T22:20:24.243Z,2.28
2023-02-25T22:22:50.773Z,2.10
2023-02-25T22:25:17.470Z,2.38
2023-02-25T22:27:44.155Z,3.28
2023-02-25T22:30:11.317Z,4.97
2023-02-25T22:32:38.070Z,3.43
2023-02-25T22:35:05.104Z,2.58
2023-02-25T22:37:32.049Z,1.95
2023-02-25T22:39:58.551Z,2.40
2023-02-25T22:42:25.740Z,2.78
2023-02-25T22:44:52.317Z,0.93
2023-02-25T22:47:18.886Z,1.20
2023-02-25T22:49:45.335Z,1.15
2023-02-25T22:52:11.877Z,1.05
2023-02-25T22:54:38.405Z,0.47
2023-02-25T22:57:04.928Z,1.23
2023-02-25T22:59:31.466Z,0.40
2023-02-25T23:01:58.037Z,0.80
2023-02-25T23:04:24.636Z,0.40
2023-02-25T23:06:51.103Z,1.13
2023-02-25T23:09:17.720Z,0.45
2023-02-25T23:11:44.448Z,0.88
2023-02-25T23:14:11.317Z,0.85
2023-02-25T23:16:43.306Z,1.38
2023-02-25T23:19:12.789Z,1.08
2023-02-25T23:21:39.696Z,0.88
2023-02-25T23:24:06.941Z,0.88
2023-02-25T23:26:38.449Z,0.53
2023-02-25T23:29:07.393Z,4.72
2023-02-25T23:31:54.428Z,1.15
2023-02-25T23:34:23.585Z,1.20
2023-02-25T23:36:50.718Z,1.25
2023-02-25T23:39:17.652Z,1.05
2023-02-25T23:41:44.321Z,1.42
2023-02-25T23:44:12.637Z,1.98
2023-02-25T23:46:39.500Z,1.27
2023-02-25T23:49:07.139Z,0.93
2023-02-25T23:51:35.090Z,3.33
2023-02-25T23:54:04.273Z,0.85
2023-02-25T23:56:31.553Z,1.20
2023-02-25T23:58:58.776Z,1.90
